sensor_id;sensor_type;location;lat;lon;timestamp;temperature;humidity
47168;DHT22;32931;47.778;17.806;2023-01-24T00:00:42;3.80;99.90
47168;DHT22;32931;47.778;17.806;2023-01-24T00:03:09;3.80;99.90
47168;DHT22;32931;47.778;17.806;2023-01-24T00:05:39;3.90;99.90
47168;DHT22;32931;47.778;17.806;2023-01-24T00:08:06;3.90;99.90
47168;DHT22;32931;47.778;17.806;2023-01-24T00:10:32;3.90;99.90
47168;DHT22;32931;47.778;17.806;2023-01-24T00:12:58;3.80;99.90
47168;DHT22;32931;47.778;17.806;2023-01-24T00:15:24;3.70;99.90
47168;DHT22;32931;47.778;17.806;2023-01-24T00:17:51;3.80;99.90
47168;DHT22;32931;47.778;17.806;2023-01-24T00:20:17;3.70;99.90
47168;DHT22;32931;47.778;17.806;2023-01-24T00:22:43;3.70;99.90
47168;DHT22;32931;47.778;17.806;2023-01-24T00:25:09;3.70;99.90
47168;DHT22;32931;47.778;17.806;2023-01-24T00:27:35;3.70;99.90
47168;DHT22;32931;47.778;17.806;2023-01-24T00:30:03;3.70;99.90
47168;DHT22;32931;47.778;17.806;2023-01-24T00:32:30;3.80;99.90
47168;DHT22;32931;47.778;17.806;2023-01-24T00:34:56;3.80;99.90
47168;DHT22;32931;47.778;17.806;2023-01-24T00:37:22;3.70;99.90
47168;DHT22;32931;47.778;17.806;2023-01-24T00:39:48;3.70;99.90
47168;DHT22;32931;47.778;17.806;2023-01-24T00:42:14;3.70;99.90
47168;DHT22;32931;47.778;17.806;2023-01-24T00:44:41;3.70;99.90
47168;DHT22;32931;47.778;17.806;2023-01-24T00:47:07;3.60;99.90
47168;DHT22;32931;47.778;17.806;2023-01-24T00:49:33;3.60;99.90
47168;DHT22;32931;47.778;17.806;2023-01-24T00:51:59;3.60;99.90
47168;DHT22;32931;47.778;17.806;2023-01-24T00:54:25;3.50;99.90
47168;DHT22;32931;47.778;17.806;2023-01-24T00:56:51;3.50;99.90
47168;DHT22;32931;47.778;17.806;2023-01-24T00:59:17;3.60;99.90
47168;DHT22;32931;47.778;17.806;2023-01-24T01:01:44;3.60;99.90
47168;DHT22;32931;47.778;17.806;2023-01-24T01:04:10;3.60;99.90
47168;DHT22;32931;47.778;17.806;2023-01-24T01:06:36;3.70;99.90
47168;DHT22;32931;47.778;17.806;2023-01-24T01:09:02;3.60;99.90
47168;DHT22;32931;47.778;17.806;2023-01-24T01:11:29;3.60;99.90
47168;DHT22;32931;47.778;17.806;2023-01-24T01:13:55;3.60;99.90
47168;DHT22;32931;47.778;17.806;2023-01-24T01:16:23;3.60;99.90
47168;DHT22;32931;47.778;17.806;2023-01-24T01:18:52;3.60;99.90
47168;DHT22;32931;47.778;17.806;2023-01-24T01:21:20;3.60;99.90
47168;DHT22;32931;47.778;17.806;2023-01-24T01:23:46;3.60;99.90
47168;DHT22;32931;47.778;17.806;2023-01-24T01:26:18;3.60;99.90
47168;DHT22;32931;47.778;17.806;2023-01-24T01:28:44;3.60;99.90
47168;DHT22;32931;47.778;17.806;2023-01-24T01:31:12;3.70;99.90
47168;DHT22;32931;47.778;17.806;2023-01-24T01:33:38;3.70;99.90
47168;DHT22;32931;47.778;17.806;2023-01-24T01:36:04;3.70;99.90
47168;DHT22;32931;47.778;17.806;2023-01-24T01:38:31;3.80;99.90
47168;DHT22;32931;47.778;17.806;2023-01-24T01:40:58;3.80;99.90
47168;DHT22;32931;47.778;17.806;2023-01-24T01:43:26;3.80;99.90
47168;DHT22;32931;47.778;17.806;2023-01-24T01:45:54;3.80;99.90
47168;DHT22;32931;47.778;17.806;2023-01-24T01:51:27;3.80;99.90
47168;DHT22;32931;47.778;17.806;2023-01-24T01:54:04;3.80;99.90
47168;DHT22;32931;47.778;17.806;2023-01-24T01:56:45;3.80;99.90
47168;DHT22;32931;47.778;17.806;2023-01-24T01:59:20;3.80;99.90
47168;DHT22;32931;47.778;17.806;2023-01-24T02:01:50;3.80;99.90
47168;DHT22;32931;47.778;17.806;2023-01-24T02:04:20;3.70;99.90
47168;DHT22;32931;47.778;17.806;2023-01-24T02:07:16;3.70;99.90
47168;DHT22;32931;47.778;17.806;2023-01-24T02:09:49;3.70;99.90
47168;DHT22;32931;47.778;17.806;2023-01-24T02:12:22;3.80;99.90
47168;DHT22;32931;47.778;17.806;2023-01-24T02:14:55;3.80;99.90
47168;DHT22;32931;47.778;17.806;2023-01-24T02:17:41;3.70;99.90
47168;DHT22;32931;47.778;17.806;2023-01-24T02:26:07;3.60;99.90
47168;DHT22;32931;47.778;17.806;2023-01-24T02:28:34;3.70;99.90
47168;DHT22;32931;47.778;17.806;2023-01-24T02:31:00;3.60;99.90
47168;DHT22;32931;47.778;17.806;2023-01-24T02:33:28;3.60;99.90
47168;DHT22;32931;47.778;17.806;2023-01-24T02:38:47;3.60;99.90
47168;DHT22;32931;47.778;17.806;2023-01-24T02:41:19;3.60;99.90
47168;DHT22;32931;47.778;17.806;2023-01-24T02:43:47;3.60;99.90
47168;DHT22;32931;47.778;17.806;2023-01-24T02:46:14;3.70;99.90
47168;DHT22;32931;47.778;17.806;2023-01-24T02:48:40;3.70;99.90
47168;DHT22;32931;47.778;17.806;2023-01-24T02:51:07;3.70;99.90
47168;DHT22;32931;47.778;17.806;2023-01-24T02:53:51;3.70;99.90
47168;DHT22;32931;47.778;17.806;2023-01-24T02:56:18;3.70;99.90
47168;DHT22;32931;47.778;17.806;2023-01-24T02:59:02;3.70;99.90
47168;DHT22;32931;47.778;17.806;2023-01-24T03:01:28;3.70;99.90
47168;DHT22;32931;47.778;17.806;2023-01-24T03:03:57;3.70;99.90
47168;DHT22;32931;47.778;17.806;2023-01-24T03:06:24;3.70;99.90
47168;DHT22;32931;47.778;17.806;2023-01-24T03:08:50;3.70;99.90
47168;DHT22;32931;47.778;17.806;2023-01-24T03:11:16;3.70;99.90
47168;DHT22;32931;47.778;17.806;2023-01-24T03:13:42;3.80;99.90
47168;DHT22;32931;47.778;17.806;2023-01-24T03:16:27;3.80;99.90
47168;DHT22;32931;47.778;17.806;2023-01-24T03:19:11;3.80;99.90
47168;DHT22;32931;47.778;17.806;2023-01-24T03:21:56;3.80;99.90
47168;DHT22;32931;47.778;17.806;2023-01-24T03:24:41;3.70;99.90
47168;DHT22;32931;47.778;17.806;2023-01-24T03:27:25;3.70;99.90
47168;DHT22;32931;47.778;17.806;2023-01-24T03:30:10;3.80;99.90
47168;DHT22;32931;47.778;17.806;2023-01-24T03:33:00;3.80;99.90
47168;DHT22;32931;47.778;17.806;2023-01-24T03:35:44;3.80;99.90
47168;DHT22;32931;47.778;17.806;2023-01-24T03:38:20;3.80;99.90
47168;DHT22;32931;47.778;17.806;2023-01-24T03:41:05;3.80;99.90
47168;DHT22;32931;47.778;17.806;2023-01-24T03:43:31;3.80;99.90
47168;DHT22;32931;47.778;17.806;2023-01-24T03:45:58;3.80;99.90
47168;DHT22;32931;47.778;17.806;2023-01-24T03:48:24;3.80;99.90
47168;DHT22;32931;47.778;17.806;2023-01-24T03:50:52;3.80;99.90
47168;DHT22;32931;47.778;17.806;2023-01-24T03:53:37;3.80;99.90
47168;DHT22;32931;47.778;17.806;2023-01-24T03:56:04;3.80;99.90
47168;DHT22;32931;47.778;17.806;2023-01-24T03:58:31;3.80;99.90
47168;DHT22;32931;47.778;17.806;2023-01-24T04:00:58;3.80;99.90
47168;DHT22;32931;47.778;17.806;2023-01-24T04:03:24;3.80;99.90
47168;DHT22;32931;47.778;17.806;2023-01-24T04:05:50;3.80;99.90
47168;DHT22;32931;47.778;17.806;2023-01-24T04:08:17;3.70;99.90
47168;DHT22;32931;47.778;17.806;2023-01-24T04:10:44;3.70;99.90
47168;DHT22;32931;47.778;17.806;2023-01-24T04:13:11;3.70;99.90
47168;DHT22;32931;47.778;17.806;2023-01-24T04:15:38;3.80;99.90
47168;DHT22;32931;47.778;17.806;2023-01-24T04:18:05;3.80;99.90
47168;DHT22;32931;47.778;17.806;2023-01-24T04:20:34;3.90;99.90
47168;DHT22;32931;47.778;17.806;2023-01-24T04:23:05;3.80;99.90
47168;DHT22;32931;47.778;17.806;2023-01-24T04:25:31;3.90;99.90
47168;DHT22;32931;47.778;17.806;2023-01-24T04:27:58;3.80;99.90
47168;DHT22;32931;47.778;17.806;2023-01-24T04:30:24;3.80;99.90
47168;DHT22;32931;47.778;17.806;2023-01-24T04:32:50;3.80;99.90
47168;DHT22;32931;47.778;17.806;2023-01-24T04:35:19;3.80;99.90
47168;DHT22;32931;47.778;17.806;2023-01-24T04:37:45;3.80;99.90
47168;DHT22;32931;47.778;17.806;2023-01-24T04:40:12;3.70;99.90
47168;DHT22;32931;47.778;17.806;2023-01-24T04:42:39;3.80;99.90
47168;DHT22;32931;47.778;17.806;2023-01-24T04:45:05;3.80;99.90
47168;DHT22;32931;47.778;17.806;2023-01-24T04:47:32;3.80;99.90
47168;DHT22;32931;47.778;17.806;2023-01-24T04:49:58;3.80;99.90
47168;DHT22;32931;47.778;17.806;2023-01-24T04:52:24;3.90;99.90
47168;DHT22;32931;47.778;17.806;2023-01-24T04:54:50;3.90;99.90
47168;DHT22;32931;47.778;17.806;2023-01-24T04:57:17;3.90;99.90
47168;DHT22;32931;47.778;17.806;2023-01-24T04:59:43;3.90;99.90
47168;DHT22;32931;47.778;17.806;2023-01-24T05:02:09;3.90;99.90
47168;DHT22;32931;47.778;17.806;2023-01-24T05:04:36;3.90;99.90
47168;DHT22;32931;47.778;17.806;2023-01-24T05:07:02;3.90;99.90
47168;DHT22;32931;47.778;17.806;2023-01-24T05:09:28;3.90;99.90
47168;DHT22;32931;47.778;17.806;2023-01-24T05:11:54;3.90;99.90
47168;DHT22;32931;47.778;17.806;2023-01-24T05:14:20;3.90;99.90
47168;DHT22;32931;47.778;17.806;2023-01-24T05:16:47;3.90;99.90
47168;DHT22;32931;47.778;17.806;2023-01-24T05:19:13;3.90;99.90
47168;DHT22;32931;47.778;17.806;2023-01-24T05:21:39;3.90;99.90
47168;DHT22;32931;47.778;17.806;2023-01-24T05:24:05;3.80;99.90
47168;DHT22;32931;47.778;17.806;2023-01-24T05:26:31;3.80;99.90
47168;DHT22;32931;47.778;17.806;2023-01-24T05:28:58;3.80;99.90
47168;DHT22;32931;47.778;17.806;2023-01-24T05:31:24;3.70;99.90
47168;DHT22;32931;47.778;17.806;2023-01-24T05:33:50;3.70;99.90
47168;DHT22;32931;47.778;17.806;2023-01-24T05:36:21;3.70;99.90
47168;DHT22;32931;47.778;17.806;2023-01-24T05:38:47;3.60;99.90
47168;DHT22;32931;47.778;17.806;2023-01-24T05:41:16;3.60;99.90
47168;DHT22;32931;47.778;17.806;2023-01-24T05:43:43;3.50;99.90
47168;DHT22;32931;47.778;17.806;2023-01-24T05:46:20;3.60;99.90
47168;DHT22;32931;47.778;17.806;2023-01-24T05:48:47;3.60;99.90
47168;DHT22;32931;47.778;17.806;2023-01-24T05:51:16;3.50;99.90
47168;DHT22;32931;47.778;17.806;2023-01-24T05:53:43;3.50;99.90
47168;DHT22;32931;47.778;17.806;2023-01-24T05:56:13;3.60;99.90
47168;DHT22;32931;47.778;17.806;2023-01-24T05:58:40;3.50;99.90
47168;DHT22;32931;47.778;17.806;2023-01-24T06:01:11;3.50;99.90
47168;DHT22;32931;47.778;17.806;2023-01-24T06:03:40;3.40;99.90
47168;DHT22;32931;47.778;17.806;2023-01-24T06:06:07;3.40;99.90
47168;DHT22;32931;47.778;17.806;2023-01-24T06:08:34;3.40;99.90
47168;DHT22;32931;47.778;17.806;2023-01-24T06:11:26;3.50;99.90
47168;DHT22;32931;47.778;17.806;2023-01-24T06:13:54;3.50;99.90
47168;DHT22;32931;47.778;17.806;2023-01-24T06:16:25;3.40;99.90
47168;DHT22;32931;47.778;17.806;2023-01-24T06:18:52;3.50;99.90
47168;DHT22;32931;47.778;17.806;2023-01-24T06:23:47;3.40;99.90
47168;DHT22;32931;47.778;17.806;2023-01-24T06:26:14;3.50;99.90
47168;DHT22;32931;47.778;17.806;2023-01-24T06:28:40;3.40;99.90
47168;DHT22;32931;47.778;17.806;2023-01-24T06:34:04;3.40;99.90
47168;DHT22;32931;47.778;17.806;2023-01-24T06:39:12;3.30;99.90
47168;DHT22;32931;47.778;17.806;2023-01-24T06:41:40;3.30;99.90
47168;DHT22;32931;47.778;17.806;2023-01-24T06:44:07;3.30;99.90
47168;DHT22;32931;47.778;17.806;2023-01-24T06:46:34;3.30;99.90
47168;DHT22;32931;47.778;17.806;2023-01-24T06:49:00;3.30;99.90
47168;DHT22;32931;47.778;17.806;2023-01-24T06:51:27;3.30;99.90
47168;DHT22;32931;47.778;17.806;2023-01-24T06:53:53;3.20;99.90
47168;DHT22;32931;47.778;17.806;2023-01-24T06:56:19;3.20;99.90
47168;DHT22;32931;47.778;17.806;2023-01-24T06:58:45;3.30;99.90
47168;DHT22;32931;47.778;17.806;2023-01-24T07:01:11;3.30;99.90
47168;DHT22;32931;47.778;17.806;2023-01-24T07:03:37;3.30;99.90
47168;DHT22;32931;47.778;17.806;2023-01-24T07:06:03;3.30;99.90
47168;DHT22;32931;47.778;17.806;2023-01-24T07:08:30;3.40;99.90
47168;DHT22;32931;47.778;17.806;2023-01-24T07:10:59;3.40;99.90
47168;DHT22;32931;47.778;17.806;2023-01-24T07:13:25;3.40;99.90
47168;DHT22;32931;47.778;17.806;2023-01-24T07:15:51;3.40;99.90
47168;DHT22;32931;47.778;17.806;2023-01-24T07:18:19;3.40;99.90
47168;DHT22;32931;47.778;17.806;2023-01-24T07:20:45;3.40;99.90
47168;DHT22;32931;47.778;17.806;2023-01-24T07:23:22;3.40;99.90
47168;DHT22;32931;47.778;17.806;2023-01-24T07:25:50;3.40;99.90
47168;DHT22;32931;47.778;17.806;2023-01-24T07:28:17;3.30;99.90
47168;DHT22;32931;47.778;17.806;2023-01-24T07:30:43;3.30;99.90
47168;DHT22;32931;47.778;17.806;2023-01-24T07:33:12;3.30;99.90
47168;DHT22;32931;47.778;17.806;2023-01-24T07:35:39;3.30;99.90
47168;DHT22;32931;47.778;17.806;2023-01-24T07:38:06;3.20;99.90
47168;DHT22;32931;47.778;17.806;2023-01-24T07:40:32;3.20;99.90
47168;DHT22;32931;47.778;17.806;2023-01-24T07:42:59;3.20;99.90
47168;DHT22;32931;47.778;17.806;2023-01-24T07:45:27;3.30;99.90
47168;DHT22;32931;47.778;17.806;2023-01-24T07:47:57;3.30;99.90
47168;DHT22;32931;47.778;17.806;2023-01-24T07:50:24;3.30;99.90
47168;DHT22;32931;47.778;17.806;2023-01-24T07:52:54;3.40;99.90
47168;DHT22;32931;47.778;17.806;2023-01-24T07:55:21;3.40;99.90
47168;DHT22;32931;47.778;17.806;2023-01-24T07:57:48;3.40;99.90
47168;DHT22;32931;47.778;17.806;2023-01-24T08:00:15;3.40;99.90
47168;DHT22;32931;47.778;17.806;2023-01-24T08:02:42;3.50;99.90
47168;DHT22;32931;47.778;17.806;2023-01-24T08:05:09;3.50;99.90
47168;DHT22;32931;47.778;17.806;2023-01-24T08:07:36;3.60;99.90
47168;DHT22;32931;47.778;17.806;2023-01-24T08:10:02;3.60;99.90
47168;DHT22;32931;47.778;17.806;2023-01-24T08:12:29;3.60;99.90
47168;DHT22;32931;47.778;17.806;2023-01-24T08:14:55;3.60;99.90
47168;DHT22;32931;47.778;17.806;2023-01-24T08:17:21;3.60;99.90
47168;DHT22;32931;47.778;17.806;2023-01-24T08:19:47;3.60;99.90
47168;DHT22;32931;47.778;17.806;2023-01-24T08:22:13;3.60;99.90
47168;DHT22;32931;47.778;17.806;2023-01-24T08:24:39;3.60;99.90
47168;DHT22;32931;47.778;17.806;2023-01-24T08:27:06;3.60;99.90
47168;DHT22;32931;47.778;17.806;2023-01-24T08:29:32;3.60;99.90
47168;DHT22;32931;47.778;17.806;2023-01-24T08:31:59;3.60;99.90
47168;DHT22;32931;47.778;17.806;2023-01-24T08:34:25;3.60;99.90
47168;DHT22;32931;47.778;17.806;2023-01-24T08:36:51;3.60;99.90
47168;DHT22;32931;47.778;17.806;2023-01-24T08:39:18;3.70;99.90
47168;DHT22;32931;47.778;17.806;2023-01-24T08:41:44;3.70;99.90
47168;DHT22;32931;47.778;17.806;2023-01-24T08:44:15;3.80;99.90
47168;DHT22;32931;47.778;17.806;2023-01-24T08:46:42;3.80;99.90
47168;DHT22;32931;47.778;17.806;2023-01-24T08:49:11;3.80;99.90
47168;DHT22;32931;47.778;17.806;2023-01-24T08:51:37;3.90;99.90
47168;DHT22;32931;47.778;17.806;2023-01-24T08:54:06;3.90;99.90
47168;DHT22;32931;47.778;17.806;2023-01-24T08:56:34;4.00;99.90
47168;DHT22;32931;47.778;17.806;2023-01-24T08:59:00;4.10;99.90
47168;DHT22;32931;47.778;17.806;2023-01-24T09:01:26;4.20;99.90
47168;DHT22;32931;47.778;17.806;2023-01-24T09:03:53;4.30;99.90
47168;DHT22;32931;47.778;17.806;2023-01-24T09:06:22;4.40;99.90
47168;DHT22;32931;47.778;17.806;2023-01-24T09:08:52;4.40;99.90
47168;DHT22;32931;47.778;17.806;2023-01-24T09:11:19;4.50;99.90
47168;DHT22;32931;47.778;17.806;2023-01-24T09:13:45;4.50;99.90
47168;DHT22;32931;47.778;17.806;2023-01-24T09:16:11;4.60;99.90
47168;DHT22;32931;47.778;17.806;2023-01-24T09:18:37;4.60;99.90
47168;DHT22;32931;47.778;17.806;2023-01-24T09:21:03;4.70;99.90
47168;DHT22;32931;47.778;17.806;2023-01-24T09:23:30;4.70;99.90
47168;DHT22;32931;47.778;17.806;2023-01-24T09:25:56;4.80;99.90
47168;DHT22;32931;47.778;17.806;2023-01-24T09:28:22;4.80;99.90
47168;DHT22;32931;47.778;17.806;2023-01-24T09:30:49;4.90;99.90
47168;DHT22;32931;47.778;17.806;2023-01-24T09:33:16;5.00;99.90
47168;DHT22;32931;47.778;17.806;2023-01-24T09:36:00;5.00;99.90
47168;DHT22;32931;47.778;17.806;2023-01-24T09:38:29;5.10;99.90
47168;DHT22;32931;47.778;17.806;2023-01-24T09:43:44;5.30;99.90
47168;DHT22;32931;47.778;17.806;2023-01-24T09:46:31;5.40;99.90
47168;DHT22;32931;47.778;17.806;2023-01-24T09:51:51;5.60;99.90
47168;DHT22;32931;47.778;17.806;2023-01-24T09:54:34;5.70;99.90
47168;DHT22;32931;47.778;17.806;2023-01-24T09:57:11;5.80;99.90
47168;DHT22;32931;47.778;17.806;2023-01-24T09:59:43;5.90;99.90
47168;DHT22;32931;47.778;17.806;2023-01-24T10:02:18;5.90;99.90
47168;DHT22;32931;47.778;17.806;2023-01-24T10:04:46;5.90;99.90
47168;DHT22;32931;47.778;17.806;2023-01-24T10:23:40;6.50;99.90
47168;DHT22;32931;47.778;17.806;2023-01-24T10:26:23;6.50;99.90
47168;DHT22;32931;47.778;17.806;2023-01-24T10:28:56;6.50;99.90
47168;DHT22;32931;47.778;17.806;2023-01-24T10:31:29;6.40;99.90
47168;DHT22;32931;47.778;17.806;2023-01-24T10:34:12;6.50;99.90
47168;DHT22;32931;47.778;17.806;2023-01-24T10:36:46;6.50;99.90
47168;DHT22;32931;47.778;17.806;2023-01-24T10:39:14;6.50;99.90
47168;DHT22;32931;47.778;17.806;2023-01-24T10:41:42;6.40;99.90
47168;DHT22;32931;47.778;17.806;2023-01-24T10:44:19;6.40;99.90
47168;DHT22;32931;47.778;17.806;2023-01-24T10:49:38;6.60;99.90
47168;DHT22;32931;47.778;17.806;2023-01-24T10:52:12;6.70;99.90
47168;DHT22;32931;47.778;17.806;2023-01-24T10:57:35;6.70;99.90
47168;DHT22;32931;47.778;17.806;2023-01-24T11:00:24;6.80;99.90
47168;DHT22;32931;47.778;17.806;2023-01-24T11:02:57;6.80;99.90
47168;DHT22;32931;47.778;17.806;2023-01-24T11:05:25;6.80;99.90
47168;DHT22;32931;47.778;17.806;2023-01-24T11:07:53;6.80;99.90
47168;DHT22;32931;47.778;17.806;2023-01-24T11:10:25;6.80;99.90
47168;DHT22;32931;47.778;17.806;2023-01-24T11:13:00;6.80;99.90
47168;DHT22;32931;47.778;17.806;2023-01-24T11:15:31;6.80;99.90
47168;DHT22;32931;47.778;17.806;2023-01-24T11:18:05;6.80;99.90
47168;DHT22;32931;47.778;17.806;2023-01-24T11:20:35;6.90;99.90
47168;DHT22;32931;47.778;17.806;2023-01-24T11:25:32;6.90;99.90
47168;DHT22;32931;47.778;17.806;2023-01-24T11:27:59;7.00;99.90
47168;DHT22;32931;47.778;17.806;2023-01-24T11:30:26;7.00;99.90
47168;DHT22;32931;47.778;17.806;2023-01-24T11:36:02;7.00;99.90
47168;DHT22;32931;47.778;17.806;2023-01-24T11:38:33;7.00;99.90
47168;DHT22;32931;47.778;17.806;2023-01-24T12:03:52;7.20;99.90
47168;DHT22;32931;47.778;17.806;2023-01-24T12:06:49;7.20;99.90
47168;DHT22;32931;47.778;17.806;2023-01-24T12:09:20;7.20;99.90
47168;DHT22;32931;47.778;17.806;2023-01-24T12:17:05;7.40;99.90
47168;DHT22;32931;47.778;17.806;2023-01-24T12:19:55;7.40;99.90
47168;DHT22;32931;47.778;17.806;2023-01-24T12:22:26;7.40;99.90
47168;DHT22;32931;47.778;17.806;2023-01-24T12:25:02;7.40;99.90
47168;DHT22;32931;47.778;17.806;2023-01-24T12:27:31;7.50;99.90
47168;DHT22;32931;47.778;17.806;2023-01-24T12:30:04;7.60;99.90
47168;DHT22;32931;47.778;17.806;2023-01-24T12:32:44;7.60;99.90
47168;DHT22;32931;47.778;17.806;2023-01-24T12:35:19;7.60;99.90
47168;DHT22;32931;47.778;17.806;2023-01-24T12:40:48;7.60;99.90
47168;DHT22;32931;47.778;17.806;2023-01-24T12:43:19;7.70;99.90
47168;DHT22;32931;47.778;17.806;2023-01-24T12:46:14;7.70;99.90
47168;DHT22;32931;47.778;17.806;2023-01-24T12:49:12;7.70;99.90
47168;DHT22;32931;47.778;17.806;2023-01-24T12:57:37;7.80;99.90
47168;DHT22;32931;47.778;17.806;2023-01-24T13:00:23;7.80;99.90
47168;DHT22;32931;47.778;17.806;2023-01-24T13:03:23;7.80;99.90
47168;DHT22;32931;47.778;17.806;2023-01-24T13:06:09;7.80;99.90
47168;DHT22;32931;47.778;17.806;2023-01-24T13:09:06;7.80;99.90
47168;DHT22;32931;47.778;17.806;2023-01-24T13:11:43;7.70;99.90
47168;DHT22;32931;47.778;17.806;2023-01-24T13:14:21;7.70;99.90
47168;DHT22;32931;47.778;17.806;2023-01-24T13:31:11;7.70;99.90
47168;DHT22;32931;47.778;17.806;2023-01-24T13:33:46;7.70;99.90
47168;DHT22;32931;47.778;17.806;2023-01-24T13:36:36;7.80;99.90
47168;DHT22;32931;47.778;17.806;2023-01-24T13:39:04;7.80;99.90
47168;DHT22;32931;47.778;17.806;2023-01-24T13:44:03;7.90;99.90
47168;DHT22;32931;47.778;17.806;2023-01-24T13:49:18;7.90;99.90
47168;DHT22;32931;47.778;17.806;2023-01-24T13:51:49;7.90;99.90
47168;DHT22;32931;47.778;17.806;2023-01-24T14:05:41;7.90;99.90
47168;DHT22;32931;47.778;17.806;2023-01-24T14:10:51;7.80;99.90
47168;DHT22;32931;47.778;17.806;2023-01-24T14:24:29;7.70;99.90
47168;DHT22;32931;47.778;17.806;2023-01-24T14:26:59;7.60;99.90
47168;DHT22;32931;47.778;17.806;2023-01-24T14:29:37;7.60;99.90
47168;DHT22;32931;47.778;17.806;2023-01-24T14:32:14;7.50;99.90
47168;DHT22;32931;47.778;17.806;2023-01-24T14:34:45;7.50;99.90
47168;DHT22;32931;47.778;17.806;2023-01-24T14:37:17;7.50;99.90
47168;DHT22;32931;47.778;17.806;2023-01-24T14:39:44;7.40;99.90
47168;DHT22;32931;47.778;17.806;2023-01-24T14:42:13;7.40;99.90
47168;DHT22;32931;47.778;17.806;2023-01-24T14:44:54;7.40;99.90
47168;DHT22;32931;47.778;17.806;2023-01-24T14:47:24;7.30;99.90
47168;DHT22;32931;47.778;17.806;2023-01-24T14:49:54;7.30;99.90
47168;DHT22;32931;47.778;17.806;2023-01-24T14:52:23;7.20;99.90
47168;DHT22;32931;47.778;17.806;2023-01-24T14:55:45;7.20;99.90
47168;DHT22;32931;47.778;17.806;2023-01-24T14:57:46;7.10;99.90
47168;DHT22;32931;47.778;17.806;2023-01-24T15:02:56;7.00;99.90
47168;DHT22;32931;47.778;17.806;2023-01-24T15:05:30;7.00;99.90
47168;DHT22;32931;47.778;17.806;2023-01-24T15:07:57;6.90;99.90
47168;DHT22;32931;47.778;17.806;2023-01-24T15:10:26;6.80;99.90
47168;DHT22;32931;47.778;17.806;2023-01-24T15:12:55;6.80;99.90
47168;DHT22;32931;47.778;17.806;2023-01-24T15:15:22;6.70;99.90
47168;DHT22;32931;47.778;17.806;2023-01-24T15:17:49;6.60;99.90
47168;DHT22;32931;47.778;17.806;2023-01-24T15:20:19;6.60;99.90
47168;DHT22;32931;47.778;17.806;2023-01-24T15:22:54;6.50;99.90
47168;DHT22;32931;47.778;17.806;2023-01-24T15:25:30;6.40;99.90
47168;DHT22;32931;47.778;17.806;2023-01-24T15:28:06;6.30;99.90
47168;DHT22;32931;47.778;17.806;2023-01-24T15:30:33;6.20;99.90
47168;DHT22;32931;47.778;17.806;2023-01-24T15:33:19;6.10;99.90
47168;DHT22;32931;47.778;17.806;2023-01-24T15:35:49;6.00;99.90
47168;DHT22;32931;47.778;17.806;2023-01-24T15:38:44;5.90;99.90
47168;DHT22;32931;47.778;17.806;2023-01-24T15:44:07;5.80;99.90
47168;DHT22;32931;47.778;17.806;2023-01-24T15:49:33;5.70;99.90
47168;DHT22;32931;47.778;17.806;2023-01-24T15:54:37;5.60;99.90
47168;DHT22;32931;47.778;17.806;2023-01-24T16:02:21;5.40;99.90
47168;DHT22;32931;47.778;17.806;2023-01-24T16:04:47;5.30;99.90
47168;DHT22;32931;47.778;17.806;2023-01-24T16:07:15;5.30;99.90
47168;DHT22;32931;47.778;17.806;2023-01-24T16:09:44;5.20;99.90
47168;DHT22;32931;47.778;17.806;2023-01-24T16:12:14;5.20;99.90
47168;DHT22;32931;47.778;17.806;2023-01-24T16:14:46;5.10;99.90
47168;DHT22;32931;47.778;17.806;2023-01-24T16:17:16;5.10;99.90
47168;DHT22;32931;47.778;17.806;2023-01-24T16:19:42;5.00;99.90
47168;DHT22;32931;47.778;17.806;2023-01-24T16:22:09;5.00;99.90
47168;DHT22;32931;47.778;17.806;2023-01-24T16:24:35;5.00;99.90
47168;DHT22;32931;47.778;17.806;2023-01-24T16:27:01;4.90;99.90
47168;DHT22;32931;47.778;17.806;2023-01-24T16:29:29;4.90;99.90
47168;DHT22;32931;47.778;17.806;2023-01-24T16:31:56;4.80;99.90
47168;DHT22;32931;47.778;17.806;2023-01-24T16:34:22;4.80;99.90
47168;DHT22;32931;47.778;17.806;2023-01-24T16:36:48;4.70;99.90
47168;DHT22;32931;47.778;17.806;2023-01-24T16:39:17;4.70;99.90
47168;DHT22;32931;47.778;17.806;2023-01-24T16:41:45;4.60;99.90
47168;DHT22;32931;47.778;17.806;2023-01-24T16:44:11;4.60;99.90
47168;DHT22;32931;47.778;17.806;2023-01-24T16:46:39;4.50;99.90
47168;DHT22;32931;47.778;17.806;2023-01-24T16:49:06;4.50;99.90
47168;DHT22;32931;47.778;17.806;2023-01-24T16:51:32;4.50;99.90
47168;DHT22;32931;47.778;17.806;2023-01-24T16:53:58;4.40;99.90
47168;DHT22;32931;47.778;17.806;2023-01-24T16:56:24;4.40;99.90
47168;DHT22;32931;47.778;17.806;2023-01-24T16:58:54;4.40;99.90
47168;DHT22;32931;47.778;17.806;2023-01-24T17:01:21;4.40;99.90
47168;DHT22;32931;47.778;17.806;2023-01-24T17:03:51;4.30;99.90
47168;DHT22;32931;47.778;17.806;2023-01-24T17:06:19;4.30;99.90
47168;DHT22;32931;47.778;17.806;2023-01-24T17:08:52;4.30;99.90
47168;DHT22;32931;47.778;17.806;2023-01-24T17:11:19;4.20;99.90
47168;DHT22;32931;47.778;17.806;2023-01-24T17:13:49;4.10;99.90
47168;DHT22;32931;47.778;17.806;2023-01-24T17:16:16;4.10;99.90
47168;DHT22;32931;47.778;17.806;2023-01-24T17:18:42;4.00;99.90
47168;DHT22;32931;47.778;17.806;2023-01-24T17:21:12;3.90;99.90
47168;DHT22;32931;47.778;17.806;2023-01-24T17:23:38;3.90;99.90
47168;DHT22;32931;47.778;17.806;2023-01-24T17:26:11;3.90;99.90
47168;DHT22;32931;47.778;17.806;2023-01-24T17:28:39;3.80;99.90
47168;DHT22;32931;47.778;17.806;2023-01-24T17:31:10;3.80;99.90
47168;DHT22;32931;47.778;17.806;2023-01-24T17:33:37;3.70;99.90
47168;DHT22;32931;47.778;17.806;2023-01-24T17:36:04;3.70;99.90
47168;DHT22;32931;47.778;17.806;2023-01-24T17:38:32;3.70;99.90
47168;DHT22;32931;47.778;17.806;2023-01-24T17:40:58;3.60;99.90
47168;DHT22;32931;47.778;17.806;2023-01-24T17:43:25;3.60;99.90
47168;DHT22;32931;47.778;17.806;2023-01-24T17:45:57;3.60;99.90
47168;DHT22;32931;47.778;17.806;2023-01-24T17:48:23;3.60;99.90
47168;DHT22;32931;47.778;17.806;2023-01-24T17:50:50;3.50;99.90
47168;DHT22;32931;47.778;17.806;2023-01-24T17:53:17;3.50;99.90
47168;DHT22;32931;47.778;17.806;2023-01-24T17:55:44;3.40;99.90
47168;DHT22;32931;47.778;17.806;2023-01-24T17:58:10;3.40;99.90
47168;DHT22;32931;47.778;17.806;2023-01-24T18:00:38;3.40;99.90
47168;DHT22;32931;47.778;17.806;2023-01-24T18:03:05;3.40;99.90
47168;DHT22;32931;47.778;17.806;2023-01-24T18:05:32;3.30;99.90
47168;DHT22;32931;47.778;17.806;2023-01-24T18:07:59;3.30;99.90
47168;DHT22;32931;47.778;17.806;2023-01-24T18:10:25;3.30;99.90
47168;DHT22;32931;47.778;17.806;2023-01-24T18:12:51;3.30;99.90
47168;DHT22;32931;47.778;17.806;2023-01-24T18:15:18;3.20;99.90
47168;DHT22;32931;47.778;17.806;2023-01-24T18:17:44;3.20;99.90